Burton, Washington
Current Conditions -  °F | °C
As of 6:53 PM on Wednesday 26 Nov 2014 (Local Time) from KSEA Reporting Station
Overcast Overcast  
Wind Chill: 56°   Ceiling: 4100
Heat Index: 56°   Visibility: 10mi
Dew Point: 52°   Wind: 3mph
Humidity: 87%   Direction: 240°WSW
Pressure: 29.93"   Gusts: NA
Location:  47.39°N, 122.46°W
Report Text: KSEA 270253Z 24003KT 10SM OVC041 13/11 A2993 RMK AO2 SLP142 T01330111 56029
Loading
Personal Weather Stations






























Interactive Weather Map New forecast layout! Learn more

10-Day Weather Forecast

Advertisements
Track Severe Weather on mobile